createdAt,value
2022-10-02T00:00:34.545Z,9.54
2022-10-02T00:02:42.795Z,9.49
2022-10-02T00:04:56.269Z,9.45
2022-10-02T00:07:03.547Z,9.48
2022-10-02T00:09:08.143Z,9.38
2022-10-02T00:11:20.035Z,9.39
2022-10-02T00:13:39.793Z,9.39
2022-10-02T00:15:43.030Z,9.38
2022-10-02T00:17:48.059Z,9.35
2022-10-02T00:19:56.676Z,9.36
2022-10-02T00:22:26.637Z,9.37
2022-10-02T00:25:04.613Z,9.36
2022-10-02T00:27:24.870Z,9.41
2022-10-02T00:29:54.026Z,9.41
2022-10-02T00:32:24.424Z,9.41
2022-10-02T00:34:30.923Z,9.42
2022-10-02T00:36:35.887Z,9.43
2022-10-02T00:38:56.370Z,9.45
2022-10-02T00:41:51.960Z,9.47
2022-10-02T00:44:17.508Z,9.48
2022-10-02T00:46:23.314Z,9.49
2022-10-02T00:48:38.975Z,9.51
2022-10-02T00:50:55.848Z,9.53
2022-10-02T00:53:18.310Z,9.53
2022-10-02T00:55:40.539Z,9.56
2022-10-02T00:58:13.536Z,9.54
2022-10-02T01:00:19.123Z,9.60
2022-10-02T01:02:27.017Z,9.61
2022-10-02T01:04:38.084Z,9.58
2022-10-02T01:06:40.681Z,9.59
2022-10-02T01:08:42.546Z,9.62
2022-10-02T01:10:46.501Z,9.62
2022-10-02T01:12:50.185Z,9.63
2022-10-02T01:14:54.058Z,9.64
2022-10-02T01:16:57.013Z,9.63
2022-10-02T01:18:59.132Z,9.62
2022-10-02T01:21:08.082Z,9.61
2022-10-02T01:23:26.623Z,9.57
2022-10-02T01:25:29.303Z,9.58
2022-10-02T01:27:35.527Z,9.56
2022-10-02T01:29:43.278Z,9.53
2022-10-02T01:31:45.312Z,9.47
2022-10-02T01:33:50.008Z,9.47
2022-10-02T01:35:51.948Z,9.48
2022-10-02T01:37:55.449Z,9.55
2022-10-02T01:40:06.919Z,9.55
2022-10-02T01:42:09.702Z,9.56
2022-10-02T01:44:13.701Z,9.58
2022-10-02T01:46:59.611Z,9.60
2022-10-02T01:49:19.503Z,9.62
2022-10-02T01:51:47.030Z,9.60
2022-10-02T01:54:17.838Z,9.62
2022-10-02T01:56:31.661Z,9.63
2022-10-02T01:58:33.915Z,9.67
2022-10-02T02:00:45.207Z,9.69
2022-10-02T02:03:12.681Z,9.69
2022-10-02T02:05:43.306Z,9.70
2022-10-02T02:08:19.547Z,9.74
2022-10-02T02:10:36.649Z,9.74
2022-10-02T02:12:49.648Z,9.77
2022-10-02T02:15:02.317Z,9.83
2022-10-02T02:17:29.662Z,9.79
2022-10-02T02:19:47.343Z,9.82
2022-10-02T02:22:02.405Z,9.82
2022-10-02T02:24:10.803Z,9.84
2022-10-02T02:26:14.734Z,9.84
2022-10-02T02:28:21.305Z,9.84
2022-10-02T02:30:24.843Z,9.85
2022-10-02T02:32:31.420Z,9.83
2022-10-02T02:34:41.855Z,9.82
2022-10-02T02:36:46.811Z,9.83
2022-10-02T02:39:15.435Z,9.82
2022-10-02T02:41:23.305Z,9.82
2022-10-02T02:43:27.431Z,9.82
2022-10-02T02:45:39.759Z,9.81
2022-10-02T02:47:51.869Z,9.79
2022-10-02T02:50:02.178Z,9.80
2022-10-02T02:52:08.311Z,9.76
2022-10-02T02:54:20.658Z,9.73
2022-10-02T02:56:23.289Z,9.69
2022-10-02T02:58:25.098Z,9.63
2022-10-02T03:00:28.236Z,9.59
2022-10-02T03:02:30.246Z,9.55
2022-10-02T03:04:33.150Z,9.51
2022-10-02T03:06:58.755Z,9.60
2022-10-02T03:09:02.363Z,9.62
2022-10-02T03:11:19.588Z,9.64
2022-10-02T03:13:33.389Z,9.65
2022-10-02T03:15:43.992Z,9.63
2022-10-02T03:18:00.596Z,9.64
2022-10-02T03:20:21.490Z,9.67
2022-10-02T03:22:55.658Z,9.68
2022-10-02T03:25:06.149Z,9.68
2022-10-02T03:27:34.856Z,9.68
2022-10-02T03:29:51.525Z,9.65
2022-10-02T03:31:54.872Z,9.64
2022-10-02T03:33:59.286Z,9.68
2022-10-02T03:36:02.633Z,9.67
2022-10-02T03:38:08.088Z,9.70
2022-10-02T03:40:10.380Z,9.69
2022-10-02T03:42:14.755Z,9.68
2022-10-02T03:44:16.570Z,9.68
2022-10-02T03:46:18.512Z,9.70
2022-10-02T03:48:20.884Z,9.71
2022-10-02T03:50:23.070Z,9.73
2022-10-02T03:52:25.773Z,9.75
2022-10-02T03:54:35.841Z,9.76
2022-10-02T03:56:44.452Z,9.75
2022-10-02T03:58:51.340Z,9.77
2022-10-02T04:01:03.322Z,9.81
2022-10-02T04:03:12.949Z,9.82
2022-10-02T04:05:25.538Z,9.87
2022-10-02T04:07:37.478Z,9.85
2022-10-02T04:10:13.291Z,9.86
2022-10-02T04:12:28.222Z,9.87
2022-10-02T04:14:46.225Z,9.86
2022-10-02T04:17:10.690Z,9.84
2022-10-02T04:19:22.678Z,9.82
2022-10-02T04:21:44.129Z,9.83
2022-10-02T04:24:03.245Z,9.83
2022-10-02T04:26:35.761Z,9.85
2022-10-02T04:28:42.783Z,9.84
2022-10-02T04:30:44.708Z,9.83
2022-10-02T04:32:47.733Z,9.88
2022-10-02T04:34:49.630Z,9.89
2022-10-02T04:37:23.033Z,9.92
2022-10-02T04:39:34.267Z,9.92
2022-10-02T04:41:57.495Z,9.93
2022-10-02T04:44:30.957Z,9.92
2022-10-02T04:46:34.100Z,9.95
2022-10-02T04:49:03.741Z,9.95
2022-10-02T04:51:30.755Z,9.95
2022-10-02T04:53:41.771Z,9.95
2022-10-02T04:56:04.490Z,9.94
2022-10-02T04:58:32.534Z,9.92
2022-10-02T05:00:45.959Z,9.89
2022-10-02T05:03:17.012Z,9.88
2022-10-02T05:05:26.234Z,9.89
2022-10-02T05:07:40.135Z,9.89
2022-10-02T05:09:53.653Z,9.90
2022-10-02T05:12:29.561Z,9.91
2022-10-02T05:14:37.286Z,9.93
2022-10-02T05:16:54.174Z,9.94
2022-10-02T05:19:18.758Z,9.97
2022-10-02T05:21:56.444Z,10.00
2022-10-02T05:24:30.489Z,10.02
2022-10-02T05:26:35.729Z,10.02
2022-10-02T05:29:15.991Z,10.03
2022-10-02T05:31:27.081Z,10.03
2022-10-02T05:33:48.384Z,10.08
2022-10-02T05:36:01.611Z,10.07
2022-10-02T05:38:14.636Z,10.08
2022-10-02T05:40:40.642Z,10.07
2022-10-02T05:42:54.071Z,10.07
2022-10-02T05:45:03.256Z,10.10
2022-10-02T05:47:07.843Z,10.09
2022-10-02T05:49:18.447Z,10.10
2022-10-02T05:51:32.240Z,10.12
2022-10-02T05:53:53.579Z,10.15
2022-10-02T05:56:04.917Z,10.14
2022-10-02T05:58:17.000Z,10.18
2022-10-02T06:00:52.459Z,10.19
2022-10-02T06:03:35.376Z,10.26
2022-10-02T06:06:07.831Z,10.35
2022-10-02T06:08:14.505Z,10.44
2022-10-02T06:10:29.119Z,10.47
2022-10-02T06:12:38.773Z,10.52
2022-10-02T06:14:52.457Z,10.52
2022-10-02T06:17:22.373Z,10.51
2022-10-02T06:19:29.992Z,10.49
2022-10-02T06:21:38.636Z,10.42
2022-10-02T06:23:49.537Z,10.41
2022-10-02T06:26:00.293Z,10.41
2022-10-02T06:28:26.792Z,10.39
2022-10-02T06:30:33.112Z,10.36
2022-10-02T06:32:41.228Z,10.37
2022-10-02T06:34:47.638Z,10.35
2022-10-02T06:37:18.668Z,10.34
2022-10-02T06:39:48.797Z,10.40
2022-10-02T06:42:05.809Z,10.41
2022-10-02T06:44:18.131Z,10.42
2022-10-02T06:46:51.239Z,10.45
2022-10-02T06:49:14.874Z,10.47
2022-10-02T06:51:21.145Z,10.50
2022-10-02T06:53:47.764Z,10.53
2022-10-02T06:56:20.249Z,10.56
2022-10-02T06:58:44.350Z,10.57
2022-10-02T07:01:27.149Z,10.59
2022-10-02T07:03:57.650Z,10.62
2022-10-02T07:06:09.146Z,10.66
2022-10-02T07:08:29.378Z,10.74
2022-10-02T07:10:59.442Z,10.85
2022-10-02T07:13:30.554Z,11.11
2022-10-02T07:16:09.848Z,11.19
2022-10-02T07:18:37.387Z,11.17
2022-10-02T07:20:52.840Z,11.14
2022-10-02T07:23:19.802Z,11.15
2022-10-02T07:25:46.104Z,11.13
2022-10-02T07:27:58.449Z,11.19
2022-10-02T07:30:05.452Z,11.21
2022-10-02T07:32:27.164Z,11.23
2022-10-02T07:34:55.051Z,11.25
2022-10-02T07:37:14.574Z,11.33
2022-10-02T07:39:43.310Z,11.40
2022-10-02T07:42:07.832Z,11.50
2022-10-02T07:44:15.458Z,11.51
2022-10-02T07:46:27.050Z,11.51
2022-10-02T07:48:36.901Z,11.52
2022-10-02T07:51:33.297Z,11.52
2022-10-02T07:53:39.389Z,11.31
2022-10-02T07:55:43.948Z,11.18
2022-10-02T07:58:05.527Z,11.11
2022-10-02T08:00:13.204Z,11.10
2022-10-02T08:02:34.750Z,11.11
2022-10-02T08:04:39.629Z,11.05
2022-10-02T08:06:41.828Z,11.06
2022-10-02T08:08:57.390Z,11.02
2022-10-02T08:11:23.539Z,11.14
2022-10-02T08:13:49.916Z,11.26
2022-10-02T08:15:56.278Z,11.36
2022-10-02T08:18:22.842Z,11.41
2022-10-02T08:20:32.304Z,11.23
2022-10-02T08:22:39.404Z,11.18
2022-10-02T08:24:49.342Z,11.21
2022-10-02T08:27:21.300Z,11.22
2022-10-02T08:29:40.379Z,11.33
2022-10-02T08:31:42.280Z,11.41
2022-10-02T08:33:45.212Z,11.49
2022-10-02T08:36:19.133Z,11.51
2022-10-02T08:38:36.215Z,11.61
2022-10-02T08:41:05.246Z,11.78
2022-10-02T08:43:35.109Z,11.99
2022-10-02T08:46:16.992Z,12.05
2022-10-02T08:48:32.085Z,12.14
2022-10-02T08:51:08.115Z,12.27
2022-10-02T08:53:40.093Z,12.56
2022-10-02T08:55:47.602Z,12.78
2022-10-02T08:58:02.052Z,12.75
2022-10-02T09:00:09.140Z,13.20
2022-10-02T09:02:36.677Z,13.51
2022-10-02T09:05:01.196Z,13.42
2022-10-02T09:07:05.842Z,13.31
2022-10-02T09:09:41.649Z,13.11
2022-10-02T09:12:21.807Z,12.95
2022-10-02T09:14:48.915Z,12.73
2022-10-02T09:17:30.941Z,12.67
2022-10-02T09:19:47.751Z,12.65
2022-10-02T09:22:12.030Z,12.77
2022-10-02T09:24:35.285Z,13.11
2022-10-02T09:26:52.319Z,13.85
2022-10-02T09:29:16.410Z,14.56
2022-10-02T09:31:51.917Z,14.61
2022-10-02T09:34:32.756Z,14.84
2022-10-02T09:36:46.499Z,14.91
2022-10-02T09:39:07.794Z,15.01
2022-10-02T09:41:33.039Z,15.32
2022-10-02T09:44:07.864Z,14.93
2022-10-02T09:46:22.003Z,15.06
2022-10-02T09:48:35.831Z,14.93
2022-10-02T09:50:57.084Z,14.70
2022-10-02T09:53:05.037Z,14.53
2022-10-02T09:55:35.534Z,14.92
2022-10-02T09:58:07.408Z,14.41
2022-10-02T10:00:33.850Z,14.22
2022-10-02T10:03:09.071Z,13.70
2022-10-02T10:05:17.037Z,13.74
2022-10-02T10:08:13.155Z,14.14
2022-10-02T10:10:33.499Z,14.88
2022-10-02T10:13:04.162Z,15.34
2022-10-02T10:15:37.763Z,15.55
2022-10-02T10:18:08.382Z,15.26
2022-10-02T10:20:36.915Z,14.98
2022-10-02T10:23:12.917Z,14.81
2022-10-02T10:25:42.035Z,14.78
2022-10-02T10:28:02.617Z,14.94
2022-10-02T10:30:10.716Z,14.77
2022-10-02T10:32:21.728Z,14.64
2022-10-02T10:34:54.589Z,14.66
2022-10-02T10:37:19.236Z,14.33
2022-10-02T10:39:27.129Z,13.83
2022-10-02T10:41:58.176Z,13.42
2022-10-02T10:44:20.087Z,13.25
2022-10-02T10:46:43.273Z,13.25
2022-10-02T10:49:18.920Z,13.24
2022-10-02T10:51:23.644Z,13.26
2022-10-02T10:54:12.393Z,13.48
2022-10-02T10:56:42.077Z,13.59
2022-10-02T10:59:09.201Z,13.66
2022-10-02T11:01:19.024Z,13.66
2022-10-02T11:03:28.193Z,13.76
2022-10-02T11:06:06.599Z,13.89
2022-10-02T11:08:38.287Z,14.01
2022-10-02T11:10:59.825Z,14.15
2022-10-02T11:13:22.646Z,14.12
2022-10-02T11:15:34.555Z,13.94
2022-10-02T11:18:03.537Z,13.75
2022-10-02T11:20:20.606Z,13.68
2022-10-02T11:22:34.698Z,13.65
2022-10-02T11:24:55.506Z,13.98
2022-10-02T11:27:40.129Z,14.14
2022-10-02T11:29:58.297Z,14.27
2022-10-02T11:32:26.712Z,14.30
2022-10-02T11:35:19.813Z,14.18
2022-10-02T11:37:50.256Z,14.19
2022-10-02T11:40:35.083Z,14.10
2022-10-02T11:43:15.462Z,14.02
2022-10-02T11:45:44.479Z,13.85
2022-10-02T11:47:50.091Z,13.73
2022-10-02T11:50:24.236Z,13.71
2022-10-02T11:52:50.541Z,13.64
2022-10-02T11:55:05.412Z,13.55
2022-10-02T11:57:29.432Z,13.48
2022-10-02T12:00:19.838Z,13.47
2022-10-02T12:02:42.215Z,13.41
2022-10-02T12:05:22.691Z,13.39
2022-10-02T12:07:58.736Z,13.44
2022-10-02T12:10:03.658Z,13.52
2022-10-02T12:12:12.788Z,13.53
2022-10-02T12:14:35.318Z,13.68
2022-10-02T12:16:53.494Z,13.66
2022-10-02T12:19:34.400Z,13.67
2022-10-02T12:22:07.041Z,13.71
2022-10-02T12:24:49.434Z,13.68
2022-10-02T12:27:23.531Z,13.61
2022-10-02T12:29:51.947Z,13.49
2022-10-02T12:32:01.868Z,13.36
2022-10-02T12:34:31.772Z,13.30
2022-10-02T12:36:41.594Z,13.28
2022-10-02T12:38:58.738Z,13.26
2022-10-02T12:41:36.368Z,13.30
2022-10-02T12:44:05.535Z,13.35
2022-10-02T12:46:23.132Z,13.35
2022-10-02T12:48:51.258Z,13.36
2022-10-02T12:51:06.099Z,13.38
2022-10-02T12:53:19.968Z,13.31
2022-10-02T12:55:34.165Z,13.27
2022-10-02T12:57:56.104Z,13.20
2022-10-02T13:00:07.750Z,13.21
2022-10-02T13:02:56.519Z,13.34
2022-10-02T13:05:09.688Z,13.60
2022-10-02T13:07:36.164Z,13.54
2022-10-02T13:09:49.964Z,13.58
2022-10-02T13:12:08.109Z,13.40
2022-10-02T13:14:48.469Z,13.74
2022-10-02T13:17:14.453Z,13.80
2022-10-02T13:19:25.138Z,13.66
2022-10-02T13:21:39.224Z,13.57
2022-10-02T13:23:55.729Z,13.39
2022-10-02T13:26:30.025Z,13.56
2022-10-02T13:28:38.974Z,13.31
2022-10-02T13:30:59.441Z,13.38
2022-10-02T13:33:34.511Z,13.42
2022-10-02T13:36:15.540Z,13.34
2022-10-02T13:38:40.069Z,13.43
2022-10-02T13:40:53.890Z,13.79
2022-10-02T13:43:56.431Z,13.94
2022-10-02T13:46:25.510Z,14.06
2022-10-02T13:48:43.095Z,14.31
2022-10-02T13:50:45.365Z,14.21
2022-10-02T13:52:56.498Z,14.30
2022-10-02T13:55:14.595Z,14.21
2022-10-02T13:57:25.461Z,14.08
2022-10-02T13:59:30.371Z,14.27
2022-10-02T14:01:47.968Z,14.36
2022-10-02T14:03:59.653Z,14.50
2022-10-02T14:06:38.997Z,14.46
2022-10-02T14:09:00.153Z,14.28
2022-10-02T14:11:23.967Z,14.12
2022-10-02T14:13:55.336Z,13.96
2022-10-02T14:16:03.501Z,13.69
2022-10-02T14:18:11.170Z,13.60
2022-10-02T14:20:46.215Z,13.48
2022-10-02T14:22:57.960Z,13.41
2022-10-02T14:25:38.371Z,13.36
2022-10-02T14:27:51.121Z,13.37
2022-10-02T14:30:00.270Z,13.28
2022-10-02T14:32:04.937Z,13.25
2022-10-02T14:34:39.079Z,13.25
2022-10-02T14:36:56.261Z,13.14
2022-10-02T14:39:14.011Z,13.07
2022-10-02T14:41:51.999Z,13.01
2022-10-02T14:44:16.300Z,12.99
2022-10-02T14:46:47.795Z,12.93
2022-10-02T14:48:56.173Z,12.90
2022-10-02T14:51:11.626Z,12.86
2022-10-02T14:53:42.968Z,12.92
2022-10-02T14:55:51.808Z,12.77
2022-10-02T14:58:16.039Z,12.66
2022-10-02T15:00:25.659Z,12.61
2022-10-02T15:02:50.166Z,12.48
2022-10-02T15:05:01.141Z,12.52
2022-10-02T15:07:24.375Z,12.56
2022-10-02T15:09:39.135Z,12.52
2022-10-02T15:11:52.102Z,12.57
2022-10-02T15:14:03.634Z,12.49
2022-10-02T15:16:33.670Z,12.50
2022-10-02T15:18:47.929Z,12.41
2022-10-02T15:20:59.677Z,12.40
2022-10-02T15:23:12.128Z,12.39
2022-10-02T15:25:34.227Z,12.27
2022-10-02T15:27:43.297Z,12.18
2022-10-02T15:30:09.797Z,12.19
2022-10-02T15:32:44.109Z,12.11
2022-10-02T15:35:01.482Z,12.05
2022-10-02T15:37:07.014Z,12.10
2022-10-02T15:39:37.011Z,11.90
2022-10-02T15:42:04.105Z,11.94
2022-10-02T15:44:33.630Z,11.84
2022-10-02T15:46:59.617Z,11.79
2022-10-02T15:49:31.215Z,11.72
2022-10-02T15:51:44.113Z,11.56
2022-10-02T15:54:03.899Z,11.49
2022-10-02T15:56:41.224Z,11.51
2022-10-02T15:59:12.190Z,11.36
2022-10-02T16:01:20.240Z,11.31
2022-10-02T16:03:37.511Z,11.21
2022-10-02T16:05:50.440Z,11.10
2022-10-02T16:07:52.422Z,11.01
2022-10-02T16:10:27.995Z,10.97
2022-10-02T16:12:39.348Z,10.94
2022-10-02T16:14:47.955Z,10.80
2022-10-02T16:16:52.829Z,10.76
2022-10-02T16:19:19.891Z,10.58
2022-10-02T16:22:00.796Z,10.68
2022-10-02T16:24:20.997Z,10.45
2022-10-02T16:26:44.216Z,10.44
2022-10-02T16:28:56.845Z,10.31
2022-10-02T16:31:17.624Z,10.24
2022-10-02T16:33:26.374Z,10.15
2022-10-02T16:35:59.352Z,10.14
2022-10-02T16:38:17.322Z,10.07
2022-10-02T16:40:27.086Z,10.02
2022-10-02T16:43:14.274Z,9.82
2022-10-02T16:45:36.758Z,9.98
2022-10-02T16:48:02.958Z,9.81
2022-10-02T16:50:27.703Z,9.83
2022-10-02T16:52:34.158Z,9.82
2022-10-02T16:55:05.776Z,9.82
2022-10-02T16:57:20.662Z,9.67
2022-10-02T16:59:32.571Z,9.43
2022-10-02T17:02:05.497Z,9.30
2022-10-02T17:04:28.203Z,9.31
2022-10-02T17:06:46.900Z,9.27
2022-10-02T17:08:54.266Z,9.19
2022-10-02T17:11:25.691Z,9.36
2022-10-02T17:13:42.984Z,9.35
2022-10-02T17:16:07.221Z,9.15
2022-10-02T17:18:24.201Z,9.01
2022-10-02T17:20:32.532Z,8.91
2022-10-02T17:22:54.730Z,9.15
2022-10-02T17:25:27.181Z,9.31
2022-10-02T17:27:35.626Z,9.34
2022-10-02T17:29:48.390Z,9.40
2022-10-02T17:31:57.763Z,9.25
2022-10-02T17:34:12.048Z,9.27
2022-10-02T17:36:23.198Z,9.19
2022-10-02T17:39:00.133Z,9.19
2022-10-02T17:41:30.273Z,9.30
2022-10-02T17:43:58.369Z,9.37
2022-10-02T17:46:25.050Z,9.35
2022-10-02T17:49:08.026Z,9.29
2022-10-02T17:54:46.977Z,9.35
2022-10-02T17:56:57.266Z,9.31
2022-10-02T17:59:10.657Z,9.32
2022-10-02T18:01:17.986Z,9.27
2022-10-02T18:03:37.122Z,9.24
2022-10-02T18:05:51.196Z,9.25
2022-10-02T18:08:20.987Z,9.42
2022-10-02T18:10:37.633Z,9.42
2022-10-02T18:12:59.213Z,9.45
2022-10-02T18:15:16.069Z,9.62
2022-10-02T18:17:27.078Z,9.63
2022-10-02T18:19:44.342Z,9.68
2022-10-02T18:21:52.492Z,9.73
2022-10-02T18:24:32.132Z,9.89
2022-10-02T18:27:11.870Z,9.86
2022-10-02T18:29:28.846Z,9.93
2022-10-02T18:32:09.169Z,9.98
2022-10-02T18:34:48.128Z,9.98
2022-10-02T18:37:23.807Z,9.85
2022-10-02T18:39:36.626Z,9.82
2022-10-02T18:41:57.274Z,9.69
2022-10-02T18:44:10.727Z,9.64
2022-10-02T18:46:21.679Z,9.55
2022-10-02T18:48:41.262Z,9.59
2022-10-02T18:50:49.335Z,9.49
2022-10-02T18:53:20.306Z,9.52
2022-10-02T18:55:41.604Z,9.58
2022-10-02T18:58:21.606Z,9.59
2022-10-02T19:00:30.060Z,9.73
2022-10-02T19:02:56.088Z,9.73
2022-10-02T19:05:23.220Z,9.76
2022-10-02T19:08:03.281Z,9.74
2022-10-02T19:10:28.208Z,9.78
2022-10-02T19:12:31.381Z,9.85
2022-10-02T19:14:42.473Z,9.93
2022-10-02T19:17:05.219Z,9.99
2022-10-02T19:19:33.788Z,10.04
2022-10-02T19:21:38.680Z,9.94
2022-10-02T19:24:07.957Z,10.04
2022-10-02T19:26:35.179Z,9.93
2022-10-02T19:29:02.385Z,9.83
2022-10-02T19:31:09.487Z,9.78
2022-10-02T19:33:22.328Z,9.77
2022-10-02T19:35:35.121Z,9.73
2022-10-02T19:37:51.456Z,9.67
2022-10-02T19:40:00.101Z,9.62
2022-10-02T19:42:13.411Z,9.60
2022-10-02T19:44:29.017Z,9.58
2022-10-02T19:46:43.521Z,9.58
2022-10-02T19:48:47.164Z,9.54
2022-10-02T19:50:58.450Z,9.54
2022-10-02T19:53:06.982Z,9.49
2022-10-02T19:55:49.852Z,9.49
2022-10-02T20:00:56.279Z,9.33
2022-10-02T20:03:19.974Z,9.35
2022-10-02T20:05:25.837Z,9.31
2022-10-02T20:07:54.316Z,9.26
2022-10-02T20:13:05.813Z,9.23
2022-10-02T20:15:42.928Z,9.13
2022-10-02T20:18:03.830Z,9.11
2022-10-02T20:20:30.366Z,9.11
2022-10-02T20:22:39.131Z,9.09
2022-10-02T20:25:10.125Z,9.10
2022-10-02T20:27:40.234Z,9.08
2022-10-02T20:29:48.867Z,9.17
2022-10-02T20:32:08.668Z,9.17
2022-10-02T20:34:44.752Z,9.24
2022-10-02T20:37:38.036Z,9.29
2022-10-02T20:40:14.776Z,9.30
2022-10-02T20:42:49.739Z,9.33
2022-10-02T20:44:56.960Z,9.36
2022-10-02T20:47:23.592Z,9.41
2022-10-02T20:49:48.199Z,9.47
2022-10-02T20:52:14.068Z,9.46
2022-10-02T20:54:45.697Z,9.45
2022-10-02T20:57:38.128Z,9.55
2022-10-02T21:00:22.601Z,9.52
2022-10-02T21:02:37.003Z,9.56
2022-10-02T21:05:07.365Z,9.59
2022-10-02T21:07:28.300Z,9.63
2022-10-02T21:09:37.150Z,9.64
2022-10-02T21:12:09.042Z,9.62
2022-10-02T21:14:30.507Z,9.64
2022-10-02T21:16:55.533Z,9.64
2022-10-02T21:19:06.000Z,9.61
2022-10-02T21:21:30.466Z,9.63
2022-10-02T21:23:58.109Z,9.59
2022-10-02T21:26:38.535Z,9.61
2022-10-02T21:29:01.615Z,9.61
2022-10-02T21:31:21.393Z,9.54
2022-10-02T21:33:36.239Z,9.51
2022-10-02T21:36:20.234Z,9.49
2022-10-02T21:38:44.446Z,9.46
2022-10-02T21:41:44.219Z,9.40
2022-10-02T21:44:37.899Z,9.34
2022-10-02T21:50:07.776Z,9.34
2022-10-02T21:52:18.816Z,9.23
2022-10-02T21:54:46.320Z,9.19
2022-10-02T21:57:08.971Z,9.11
2022-10-02T21:59:44.694Z,9.04
2022-10-02T22:05:15.432Z,9.05
2022-10-02T22:07:44.554Z,8.99
2022-10-02T22:10:23.546Z,9.01
2022-10-02T22:12:51.140Z,8.95
2022-10-02T22:15:21.267Z,8.93
2022-10-02T22:17:52.209Z,8.92
2022-10-02T22:20:18.913Z,8.87
2022-10-02T22:22:44.801Z,8.86
2022-10-02T22:25:12.551Z,8.85
2022-10-02T22:27:29.539Z,8.87
2022-10-02T22:29:45.059Z,8.87
2022-10-02T22:31:49.715Z,8.77
2022-10-02T22:34:13.565Z,8.75
2022-10-02T22:36:42.498Z,8.59
2022-10-02T22:39:12.844Z,8.57
2022-10-02T22:41:43.447Z,8.46
2022-10-02T22:43:59.432Z,8.34
2022-10-02T22:46:24.083Z,8.28
2022-10-02T22:48:40.109Z,8.20
2022-10-02T22:50:58.420Z,8.09
2022-10-02T22:53:28.098Z,8.10
2022-10-02T22:55:46.114Z,7.96
2022-10-02T22:58:19.015Z,7.98
2022-10-02T23:00:47.989Z,7.97
2022-10-02T23:03:16.288Z,7.97
2022-10-02T23:05:31.609Z,7.97
2022-10-02T23:07:55.062Z,7.95
2022-10-02T23:10:06.117Z,7.93
2022-10-02T23:12:27.979Z,7.84
2022-10-02T23:15:05.366Z,7.82
2022-10-02T23:17:36.323Z,7.79
2022-10-02T23:19:42.605Z,7.84
2022-10-02T23:21:59.280Z,7.82
2022-10-02T23:24:28.775Z,7.85
2022-10-02T23:27:08.226Z,7.85
2022-10-02T23:29:28.556Z,7.89
2022-10-02T23:31:43.446Z,7.93
2022-10-02T23:34:15.518Z,7.86
2022-10-02T23:36:44.661Z,7.80
2022-10-02T23:39:29.089Z,7.86
2022-10-02T23:41:47.144Z,7.83
2022-10-02T23:44:28.225Z,7.91
2022-10-02T23:46:57.251Z,7.98
2022-10-02T23:49:02.642Z,7.99
2022-10-02T23:51:17.826Z,7.98
2022-10-02T23:53:54.656Z,7.92
2022-10-02T23:56:37.111Z,7.91
2022-10-02T23:59:02.227Z,7.88
